createdAt,value
2023-02-22T00:00:53.358Z,12.35
2023-02-22T00:03:26.709Z,11.52
2023-02-22T00:06:01.966Z,10.69
2023-02-22T00:08:31.405Z,10.12
2023-02-22T00:11:00.449Z,9.73
2023-02-22T00:13:28.513Z,9.43
2023-02-22T00:15:56.607Z,9.66
2023-02-22T00:18:23.765Z,11.32
2023-02-22T00:20:50.763Z,12.25
2023-02-22T00:23:21.257Z,11.46
2023-02-22T00:25:50.126Z,10.68
2023-02-22T00:28:18.508Z,10.13
2023-02-22T00:30:45.585Z,9.75
2023-02-22T00:33:13.886Z,9.46
2023-02-22T00:35:41.233Z,9.70
2023-02-22T00:38:08.055Z,11.37
2023-02-22T00:40:35.131Z,12.33
2023-02-22T00:43:04.529Z,11.56
2023-02-22T00:45:34.992Z,10.73
2023-02-22T00:48:03.584Z,10.16
2023-02-22T00:50:31.945Z,9.76
2023-02-22T00:53:01.046Z,9.89
2023-02-22T00:55:31.589Z,11.53
2023-02-22T00:58:00.792Z,12.47
2023-02-22T01:00:35.882Z,11.63
2023-02-22T01:03:04.390Z,10.77
2023-02-22T01:05:32.534Z,10.19
2023-02-22T01:08:01.083Z,9.79
2023-02-22T01:10:30.498Z,9.91
2023-02-22T01:12:58.078Z,11.52
2023-02-22T01:15:30.114Z,12.47
2023-02-22T01:17:59.111Z,11.63
2023-02-22T01:20:27.503Z,10.79
2023-02-22T01:22:57.030Z,10.22
2023-02-22T01:25:27.740Z,9.80
2023-02-22T01:27:55.748Z,9.89
2023-02-22T01:30:30.224Z,11.48
2023-02-22T01:32:57.366Z,12.44
2023-02-22T01:35:28.832Z,11.60
2023-02-22T01:37:57.441Z,10.77
2023-02-22T01:40:32.088Z,10.20
2023-02-22T01:43:03.059Z,9.77
2023-02-22T01:45:29.597Z,9.86
2023-02-22T01:48:19.186Z,11.44
2023-02-22T01:51:11.623Z,12.35
2023-02-22T01:53:45.915Z,11.32
2023-02-22T01:56:13.577Z,10.55
2023-02-22T01:58:49.822Z,10.04
2023-02-22T02:01:17.864Z,9.64
2023-02-22T02:03:45.042Z,9.34
2023-02-22T02:06:14.052Z,9.49
2023-02-22T02:08:55.749Z,11.09
2023-02-22T02:11:25.185Z,12.18
2023-02-22T02:13:54.573Z,11.34
2023-02-22T02:16:36.247Z,10.51
2023-02-22T02:19:03.716Z,9.88
2023-02-22T02:21:49.228Z,9.46
2023-02-22T02:25:30.230Z,9.66
2023-02-22T02:28:23.708Z,12.08
2023-02-22T02:31:35.280Z,12.35
2023-02-22T02:34:14.445Z,11.00
2023-02-22T02:37:05.378Z,10.21
2023-02-22T02:39:43.254Z,9.63
2023-02-22T02:42:15.035Z,9.22
2023-02-22T02:45:09.348Z,9.16
2023-02-22T02:47:41.942Z,10.94
2023-02-22T02:50:33.423Z,11.92
2023-02-22T02:53:04.525Z,10.91
2023-02-22T02:55:31.310Z,10.06
2023-02-22T02:57:58.817Z,9.47
2023-02-22T03:00:31.001Z,9.03
2023-02-22T03:03:29.234Z,9.48
2023-02-22T03:06:07.895Z,11.43
2023-02-22T03:08:43.541Z,11.72
2023-02-22T03:11:22.199Z,10.66
2023-02-22T03:14:08.475Z,9.82
2023-02-22T03:16:49.589Z,9.22
2023-02-22T03:19:38.617Z,9.30
2023-02-22T03:22:20.610Z,11.08
2023-02-22T03:25:06.513Z,11.62
2023-02-22T03:27:49.043Z,10.51
2023-02-22T03:30:32.823Z,9.63
2023-02-22T03:33:08.477Z,9.01
2023-02-22T03:35:49.523Z,9.15
2023-02-22T03:38:19.107Z,10.85
2023-02-22T03:40:50.369Z,11.57
2023-02-22T03:43:24.258Z,10.57
2023-02-22T03:45:51.189Z,9.64
2023-02-22T03:48:32.509Z,8.99
2023-02-22T03:51:00.369Z,8.46
2023-02-22T03:53:27.089Z,8.95
2023-02-22T03:55:55.096Z,10.54
2023-02-22T03:58:22.581Z,10.59
2023-02-22T04:00:52.423Z,9.59
2023-02-22T04:03:20.952Z,8.79
2023-02-22T04:05:48.051Z,8.27
2023-02-22T04:08:15.424Z,9.23
2023-02-22T04:10:42.460Z,10.70
2023-02-22T04:13:10.075Z,10.53
2023-02-22T04:15:37.208Z,9.48
2023-02-22T04:18:05.062Z,8.66
2023-02-22T04:20:31.722Z,8.05
2023-02-22T04:22:58.275Z,8.31
2023-02-22T04:25:24.821Z,9.85
2023-02-22T04:27:51.537Z,10.63
2023-02-22T04:30:19.005Z,9.68
2023-02-22T04:32:45.887Z,8.73
2023-02-22T04:35:12.562Z,8.04
2023-02-22T04:37:39.377Z,7.93
2023-02-22T04:40:07.666Z,9.40
2023-02-22T04:42:35.826Z,10.22
2023-02-22T04:45:04.237Z,9.30
2023-02-22T04:47:34.699Z,8.34
2023-02-22T04:50:02.021Z,7.65
2023-02-22T04:52:28.635Z,7.65
2023-02-22T04:54:55.170Z,9.18
2023-02-22T04:57:22.297Z,9.96
2023-02-22T04:59:50.444Z,9.02
2023-02-22T05:02:17.892Z,8.05
2023-02-22T05:04:44.938Z,7.43
2023-02-22T05:07:11.656Z,8.24
2023-02-22T05:09:38.293Z,9.74
2023-02-22T05:12:05.222Z,9.75
2023-02-22T05:14:32.302Z,8.65
2023-02-22T05:16:59.521Z,7.80
2023-02-22T05:19:26.134Z,7.24
2023-02-22T05:21:53.109Z,8.14
2023-02-22T05:24:19.624Z,9.68
2023-02-22T05:26:46.275Z,9.46
2023-02-22T05:29:13.804Z,8.37
2023-02-22T05:31:41.307Z,7.52
2023-02-22T05:34:08.432Z,6.93
2023-02-22T05:36:35.181Z,7.48
2023-02-22T05:39:01.800Z,9.14
2023-02-22T05:41:28.565Z,9.61
2023-02-22T05:43:55.217Z,8.54
2023-02-22T05:46:21.738Z,7.58
2023-02-22T05:48:48.290Z,6.94
2023-02-22T05:51:15.109Z,7.37
2023-02-22T05:53:42.020Z,8.97
2023-02-22T05:56:08.747Z,9.28
2023-02-22T05:58:35.333Z,8.19
2023-02-22T06:01:03.345Z,7.31
2023-02-22T06:03:30.079Z,6.68
2023-02-22T06:05:57.390Z,6.94
2023-02-22T06:08:23.955Z,8.56
2023-02-22T06:10:50.441Z,9.38
2023-02-22T06:13:17.141Z,8.40
2023-02-22T06:15:43.737Z,7.42
2023-02-22T06:18:10.431Z,6.75
2023-02-22T06:20:36.984Z,6.92
2023-02-22T06:23:03.489Z,8.53
2023-02-22T06:25:31.221Z,9.37
2023-02-22T06:27:59.738Z,8.40
2023-02-22T06:30:27.784Z,7.42
2023-02-22T06:32:54.430Z,6.73
2023-02-22T06:35:21.430Z,6.78
2023-02-22T06:37:48.042Z,8.32
2023-02-22T06:40:15.148Z,9.31
2023-02-22T06:42:41.774Z,8.47
2023-02-22T06:45:08.978Z,7.50
2023-02-22T06:47:40.738Z,6.89
2023-02-22T06:50:18.428Z,7.73
2023-02-22T06:52:47.046Z,9.39
2023-02-22T06:55:22.456Z,9.34
2023-02-22T06:57:49.312Z,8.18
2023-02-22T07:00:18.318Z,7.34
2023-02-22T07:02:46.044Z,7.12
2023-02-22T07:05:12.807Z,8.59
2023-02-22T07:07:40.034Z,9.75
2023-02-22T07:10:14.613Z,9.02
2023-02-22T07:12:41.132Z,7.98
2023-02-22T07:15:08.008Z,7.64
2023-02-22T07:17:34.808Z,8.98
2023-02-22T07:20:01.435Z,10.30
2023-02-22T07:22:28.144Z,10.00
2023-02-22T07:24:54.714Z,8.90
2023-02-22T07:27:22.054Z,8.09
2023-02-22T07:29:49.224Z,8.30
2023-02-22T07:32:15.817Z,9.86
2023-02-22T07:34:42.616Z,10.70
2023-02-22T07:37:09.164Z,9.83
2023-02-22T07:39:37.300Z,8.89
2023-02-22T07:42:04.362Z,8.24
2023-02-22T07:44:30.949Z,8.61
2023-02-22T07:46:57.514Z,10.23
2023-02-22T07:49:24.056Z,11.09
2023-02-22T07:51:50.747Z,10.26
2023-02-22T07:54:17.344Z,9.32
2023-02-22T07:56:48.443Z,8.64
2023-02-22T07:59:15.898Z,8.80
2023-02-22T08:01:42.568Z,10.37
2023-02-22T08:04:09.303Z,11.19
2023-02-22T08:06:36.122Z,10.39
2023-02-22T08:09:03.022Z,9.49
2023-02-22T08:11:29.771Z,8.83
2023-02-22T08:13:56.405Z,8.85
2023-02-22T08:16:23.036Z,10.39
2023-02-22T08:18:49.654Z,10.77
2023-02-22T08:21:16.924Z,9.91
2023-02-22T08:23:43.946Z,9.17
2023-02-22T08:26:14.992Z,8.91
2023-02-22T08:28:42.558Z,10.24
2023-02-22T08:31:09.316Z,10.35
2023-02-22T08:33:36.247Z,9.58
2023-02-22T08:36:03.369Z,8.99
2023-02-22T08:38:32.023Z,8.94
2023-02-22T08:40:58.692Z,10.43
2023-02-22T08:43:25.961Z,11.35
2023-02-22T08:45:53.567Z,10.55
2023-02-22T08:48:21.173Z,9.83
2023-02-22T08:50:47.855Z,9.28
2023-02-22T08:53:15.990Z,8.94
2023-02-22T08:55:43.329Z,9.67
2023-02-22T08:58:10.415Z,10.99
2023-02-22T09:00:39.460Z,10.42
2023-02-22T09:03:09.678Z,9.77
2023-02-22T09:05:37.091Z,9.33
2023-02-22T09:08:04.291Z,9.05
2023-02-22T09:10:33.825Z,9.46
2023-02-22T09:13:00.784Z,11.19
2023-02-22T09:15:28.373Z,11.51
2023-02-22T09:17:55.509Z,10.73
2023-02-22T09:20:24.702Z,10.16
2023-02-22T09:22:52.598Z,9.79
2023-02-22T09:25:20.348Z,9.53
2023-02-22T09:27:52.710Z,9.33
2023-02-22T09:30:24.313Z,9.22
2023-02-22T09:32:54.199Z,9.14
2023-02-22T09:35:28.618Z,9.07
2023-02-22T09:37:57.975Z,8.91
2023-02-22T09:40:30.575Z,8.87
2023-02-22T09:43:21.407Z,8.87
2023-02-22T09:46:20.761Z,8.88
2023-02-22T09:49:19.780Z,8.84
2023-02-22T09:52:04.315Z,8.93
2023-02-22T09:54:39.441Z,9.80
2023-02-22T09:57:35.381Z,11.01
2023-02-22T10:00:17.440Z,10.79
2023-02-22T10:02:56.737Z,10.59
2023-02-22T10:05:28.913Z,10.42
2023-02-22T10:08:07.951Z,10.35
2023-02-22T10:10:38.673Z,10.41
2023-02-22T10:14:06.077Z,10.40
2023-02-22T10:17:07.999Z,10.25
2023-02-22T10:20:13.007Z,10.09
2023-02-22T10:22:57.064Z,10.15
2023-02-22T10:25:27.792Z,10.33
2023-02-22T10:28:11.718Z,10.45
2023-02-22T10:30:43.854Z,10.35
2023-02-22T10:33:19.675Z,10.31
2023-02-22T10:35:47.452Z,10.09
2023-02-22T10:38:22.829Z,9.96
2023-02-22T10:41:18.378Z,9.91
2023-02-22T10:43:45.512Z,9.89
2023-02-22T10:46:17.795Z,9.88
2023-02-22T10:48:48.245Z,9.83
2023-02-22T10:51:15.106Z,9.76
2023-02-22T10:53:41.649Z,9.66
2023-02-22T10:56:20.779Z,9.55
2023-02-22T10:58:49.133Z,9.50
2023-02-22T11:01:37.692Z,9.50
2023-02-22T11:04:18.181Z,9.50
2023-02-22T11:06:48.290Z,9.53
2023-02-22T11:09:23.734Z,9.55
2023-02-22T11:12:09.607Z,9.58
2023-02-22T11:14:36.451Z,9.56
2023-02-22T11:17:08.116Z,9.60
2023-02-22T11:19:37.606Z,9.69
2023-02-22T11:22:07.374Z,9.80
2023-02-22T11:24:48.406Z,9.93
2023-02-22T11:27:39.303Z,10.04
2023-02-22T11:30:32.519Z,10.14
2023-02-22T11:33:12.081Z,10.28
2023-02-22T11:35:57.610Z,10.46
2023-02-22T11:38:36.292Z,10.72
2023-02-22T11:41:14.787Z,10.98
2023-02-22T11:43:47.204Z,11.17
2023-02-22T11:46:18.483Z,11.21
2023-02-22T11:49:07.772Z,11.20
2023-02-22T11:51:40.625Z,11.13
2023-02-22T11:54:47.153Z,11.06
2023-02-22T11:57:36.776Z,11.22
2023-02-22T12:00:44.867Z,11.36
2023-02-22T12:03:36.483Z,11.39
2023-02-22T12:06:15.084Z,11.45
2023-02-22T12:08:55.299Z,11.66
2023-02-22T12:11:52.802Z,11.90
2023-02-22T12:15:03.295Z,12.10
2023-02-22T12:18:00.001Z,12.16
2023-02-22T12:20:45.328Z,12.15
2023-02-22T12:23:15.153Z,12.03
2023-02-22T12:25:57.922Z,12.03
2023-02-22T12:28:37.980Z,12.06
2023-02-22T12:31:29.205Z,12.07
2023-02-22T12:34:27.606Z,12.01
2023-02-22T12:37:07.337Z,11.91
2023-02-22T12:39:57.356Z,11.79
2023-02-22T12:42:47.206Z,11.66
2023-02-22T12:45:29.977Z,11.61
2023-02-22T12:48:07.327Z,11.57
2023-02-22T12:50:34.672Z,11.60
2023-02-22T12:53:19.339Z,11.60
2023-02-22T12:56:27.349Z,11.63
2023-02-22T12:58:59.949Z,11.63
2023-02-22T13:01:32.511Z,11.62
2023-02-22T13:04:05.745Z,11.61
2023-02-22T13:07:08.285Z,11.58
2023-02-22T13:10:12.195Z,11.54
2023-02-22T13:13:26.255Z,11.46
2023-02-22T13:15:56.829Z,11.31
2023-02-22T13:18:39.207Z,11.20
2023-02-22T13:21:21.076Z,11.11
2023-02-22T13:24:04.062Z,11.00
2023-02-22T13:27:15.564Z,10.84
2023-02-22T13:29:47.937Z,10.63
2023-02-22T13:32:32.693Z,10.48
2023-02-22T13:35:44.586Z,10.35
2023-02-22T13:38:29.080Z,10.19
2023-02-22T13:41:35.179Z,10.03
2023-02-22T13:44:35.736Z,9.87
2023-02-22T13:47:20.100Z,9.77
2023-02-22T13:49:59.310Z,9.69
2023-02-22T13:52:29.330Z,9.61
2023-02-22T13:55:10.224Z,9.55
2023-02-22T13:57:47.879Z,9.46
2023-02-22T14:00:14.465Z,9.40
2023-02-22T14:03:08.679Z,9.33
2023-02-22T14:05:35.605Z,9.25
2023-02-22T14:08:02.295Z,9.20
2023-02-22T14:11:00.287Z,9.15
2023-02-22T14:13:28.980Z,9.09
2023-02-22T14:16:04.522Z,9.04
2023-02-22T14:18:41.902Z,8.94
2023-02-22T14:21:15.712Z,8.84
2023-02-22T14:23:55.958Z,8.76
2023-02-22T14:26:28.807Z,8.65
2023-02-22T14:28:59.599Z,8.54
2023-02-22T14:31:37.659Z,8.44
2023-02-22T14:34:14.796Z,8.33
2023-02-22T14:36:52.195Z,8.21
2023-02-22T14:39:45.399Z,8.12
2023-02-22T14:42:27.440Z,8.03
2023-02-22T14:45:08.809Z,7.93
2023-02-22T14:48:00.428Z,7.83
2023-02-22T14:50:41.465Z,8.14
2023-02-22T14:53:40.199Z,9.94
2023-02-22T14:56:13.856Z,10.06
2023-02-22T14:58:41.555Z,9.39
2023-02-22T15:01:58.329Z,8.94
2023-02-22T15:04:30.593Z,8.56
2023-02-22T15:07:00.632Z,8.35
2023-02-22T15:09:36.735Z,8.16
2023-02-22T15:12:03.350Z,8.02
2023-02-22T15:14:36.977Z,7.89
2023-02-22T15:17:13.616Z,7.75
2023-02-22T15:19:41.317Z,7.62
2023-02-22T15:22:29.556Z,7.52
2023-02-22T15:25:03.249Z,7.41
2023-02-22T15:27:36.241Z,7.31
2023-02-22T15:30:26.003Z,7.18
2023-02-22T15:33:03.558Z,7.06
2023-02-22T15:35:32.891Z,6.99
2023-02-22T15:38:13.752Z,8.06
2023-02-22T15:40:42.578Z,9.38
2023-02-22T15:43:23.721Z,8.81
2023-02-22T15:45:51.626Z,8.14
2023-02-22T15:48:20.342Z,7.70
2023-02-22T15:51:13.184Z,7.46
2023-02-22T15:53:49.128Z,7.24
2023-02-22T15:56:26.397Z,7.06
2023-02-22T15:59:05.574Z,6.93
2023-02-22T16:01:44.142Z,6.80
2023-02-22T16:04:23.610Z,7.54
2023-02-22T16:06:55.025Z,9.48
2023-02-22T16:09:25.428Z,9.58
2023-02-22T16:12:09.686Z,8.76
2023-02-22T16:14:37.006Z,8.09
2023-02-22T16:17:28.129Z,7.70
2023-02-22T16:19:55.153Z,7.37
2023-02-22T16:22:35.503Z,7.17
2023-02-22T16:25:17.278Z,6.96
2023-02-22T16:27:48.810Z,6.95
2023-02-22T16:30:25.494Z,8.44
2023-02-22T16:32:55.732Z,9.65
2023-02-22T16:35:27.893Z,8.98
2023-02-22T16:38:01.581Z,8.25
2023-02-22T16:40:43.892Z,7.75
2023-02-22T16:43:14.333Z,7.39
2023-02-22T16:45:43.601Z,7.13
2023-02-22T16:48:32.218Z,6.91
2023-02-22T16:51:16.738Z,6.67
2023-02-22T16:53:43.993Z,7.40
2023-02-22T16:56:15.689Z,9.24
2023-02-22T16:58:42.753Z,9.68
2023-02-22T17:01:11.854Z,8.75
2023-02-22T17:03:38.832Z,8.00
2023-02-22T17:06:06.198Z,7.50
2023-02-22T17:08:32.813Z,7.15
2023-02-22T17:11:00.142Z,6.86
2023-02-22T17:13:28.601Z,6.81
2023-02-22T17:15:56.798Z,8.23
2023-02-22T17:18:27.804Z,9.27
2023-02-22T17:20:54.597Z,8.52
2023-02-22T17:23:22.562Z,7.73
2023-02-22T17:26:03.834Z,7.20
2023-02-22T17:28:31.557Z,6.80
2023-02-22T17:31:00.630Z,6.50
2023-02-22T17:33:32.253Z,7.04
2023-02-22T17:36:01.219Z,8.62
2023-02-22T17:38:29.541Z,8.17
2023-02-22T17:40:58.329Z,7.39
2023-02-22T17:43:27.204Z,6.86
2023-02-22T17:45:54.107Z,6.48
2023-02-22T17:48:22.907Z,6.61
2023-02-22T17:50:51.437Z,8.20
2023-02-22T17:53:21.191Z,9.26
2023-02-22T17:55:48.406Z,8.42
2023-02-22T17:58:15.617Z,7.59
2023-02-22T18:00:46.356Z,7.03
2023-02-22T18:03:20.804Z,6.61
2023-02-22T18:05:50.251Z,6.34
2023-02-22T18:08:16.929Z,7.46
2023-02-22T18:10:44.442Z,8.28
2023-02-22T18:13:17.287Z,7.51
2023-02-22T18:15:45.668Z,6.82
2023-02-22T18:18:12.849Z,6.35
2023-02-22T18:20:50.728Z,6.23
2023-02-22T18:23:21.656Z,7.78
2023-02-22T18:26:07.568Z,7.95
2023-02-22T18:28:35.594Z,7.06
2023-02-22T18:31:13.648Z,6.46
2023-02-22T18:33:42.625Z,6.08
2023-02-22T18:36:12.772Z,7.15
2023-02-22T18:38:44.072Z,8.48
2023-02-22T18:41:14.091Z,7.79
2023-02-22T18:43:41.353Z,6.99
2023-02-22T18:46:10.936Z,6.43
2023-02-22T18:48:38.391Z,6.04
2023-02-22T18:51:09.233Z,5.88
2023-02-22T18:53:37.360Z,7.20
2023-02-22T18:56:07.090Z,8.42
2023-02-22T18:58:35.373Z,7.75
2023-02-22T19:01:03.159Z,6.94
2023-02-22T19:03:31.731Z,6.34
2023-02-22T19:06:03.252Z,5.92
2023-02-22T19:08:31.864Z,5.98
2023-02-22T19:11:08.561Z,7.53
2023-02-22T19:13:36.488Z,7.47
2023-02-22T19:16:06.504Z,6.66
2023-02-22T19:18:33.249Z,6.06
2023-02-22T19:21:03.213Z,5.63
2023-02-22T19:23:34.288Z,5.94
2023-02-22T19:26:03.729Z,7.69
2023-02-22T19:28:33.452Z,8.63
2023-02-22T19:31:30.508Z,7.69
2023-02-22T19:34:08.231Z,6.68
2023-02-22T19:36:38.513Z,6.04
2023-02-22T19:39:05.252Z,6.66
2023-02-22T19:41:31.903Z,8.07
2023-02-22T19:43:58.957Z,7.55
2023-02-22T19:46:25.701Z,6.66
2023-02-22T19:48:54.738Z,6.06
2023-02-22T19:51:25.635Z,6.75
2023-02-22T19:53:53.719Z,8.27
2023-02-22T19:56:26.398Z,7.89
2023-02-22T19:58:55.469Z,6.91
2023-02-22T20:01:32.347Z,6.22
2023-02-22T20:04:03.025Z,6.19
2023-02-22T20:06:39.432Z,7.73
2023-02-22T20:09:08.779Z,7.74
2023-02-22T20:11:35.514Z,6.79
2023-02-22T20:14:05.671Z,6.08
2023-02-22T20:16:34.150Z,6.69
2023-02-22T20:19:00.836Z,8.21
2023-02-22T20:21:31.207Z,8.02
2023-02-22T20:24:04.561Z,6.99
2023-02-22T20:26:33.622Z,6.16
2023-02-22T20:29:03.281Z,5.69
2023-02-22T20:31:30.793Z,6.54
2023-02-22T20:34:02.144Z,7.86
2023-02-22T20:36:30.199Z,7.22
2023-02-22T20:38:58.987Z,6.29
2023-02-22T20:41:32.076Z,5.94
2023-02-22T20:44:00.417Z,7.36
2023-02-22T20:46:30.869Z,7.97
2023-02-22T20:49:00.160Z,6.99
2023-02-22T20:51:28.104Z,6.19
2023-02-22T20:53:59.189Z,5.62
2023-02-22T20:56:28.792Z,6.22
2023-02-22T20:59:01.429Z,7.59
2023-02-22T21:01:28.785Z,7.06
2023-02-22T21:04:03.119Z,6.14
2023-02-22T21:06:30.358Z,6.03
2023-02-22T21:08:59.529Z,7.50
2023-02-22T21:11:30.698Z,7.77
2023-02-22T21:13:57.510Z,6.78
2023-02-22T21:16:31.374Z,5.94
2023-02-22T21:19:01.790Z,5.97
2023-02-22T21:21:29.304Z,7.52
2023-02-22T21:24:00.875Z,7.46
2023-02-22T21:26:30.975Z,6.48
2023-02-22T21:29:04.050Z,5.72
2023-02-22T21:31:32.309Z,5.70
2023-02-22T21:33:59.759Z,7.28
2023-02-22T21:36:27.680Z,8.09
2023-02-22T21:38:57.600Z,7.15
2023-02-22T21:41:28.231Z,6.13
2023-02-22T21:43:56.680Z,5.56
2023-02-22T21:46:25.460Z,6.57
2023-02-22T21:48:52.167Z,7.81
2023-02-22T21:51:22.693Z,7.08
2023-02-22T21:53:52.816Z,6.17
2023-02-22T21:56:29.495Z,5.49
2023-02-22T21:59:06.787Z,5.00
2023-02-22T22:01:49.258Z,5.46
2023-02-22T22:04:19.512Z,7.25
2023-02-22T22:06:51.362Z,6.99
2023-02-22T22:09:19.275Z,6.04
2023-02-22T22:11:53.848Z,5.35
2023-02-22T22:14:23.665Z,5.31
2023-02-22T22:16:55.246Z,6.87
2023-02-22T22:19:22.225Z,7.70
2023-02-22T22:21:52.729Z,6.81
2023-02-22T22:24:21.793Z,5.92
2023-02-22T22:26:50.595Z,5.26
2023-02-22T22:29:18.018Z,5.40
2023-02-22T22:31:45.475Z,7.03
2023-02-22T22:34:12.299Z,7.45
2023-02-22T22:36:38.967Z,6.46
2023-02-22T22:39:12.339Z,5.67
2023-02-22T22:41:41.797Z,5.09
2023-02-22T22:44:09.302Z,5.17
2023-02-22T22:46:39.081Z,6.72
2023-02-22T22:49:12.638Z,6.47
2023-02-22T22:51:46.697Z,5.59
2023-02-22T22:54:13.270Z,4.97
2023-02-22T22:56:39.808Z,5.04
2023-02-22T22:59:08.916Z,6.64
2023-02-22T23:01:39.989Z,6.81
2023-02-22T23:04:10.955Z,5.87
2023-02-22T23:06:41.336Z,5.14
2023-02-22T23:09:21.067Z,4.77
2023-02-22T23:11:57.080Z,6.16
2023-02-22T23:14:30.407Z,6.56
2023-02-22T23:17:02.521Z,5.68
2023-02-22T23:19:30.685Z,4.96
2023-02-22T23:21:58.477Z,5.26
2023-02-22T23:24:26.826Z,6.82
2023-02-22T23:26:59.302Z,6.59
2023-02-22T23:29:28.073Z,5.66
2023-02-22T23:31:55.070Z,4.96
2023-02-22T23:34:22.696Z,4.63
2023-02-22T23:36:53.480Z,5.88
2023-02-22T23:39:22.354Z,7.24
2023-02-22T23:41:54.494Z,6.69
2023-02-22T23:44:21.552Z,5.68
2023-02-22T23:46:54.333Z,5.02
2023-02-22T23:49:37.249Z,4.54
2023-02-22T23:52:05.830Z,4.69
2023-02-22T23:54:35.761Z,6.39
2023-02-22T23:57:03.554Z,6.99
2023-02-22T23:59:30.720Z,6.02
